Time;durP1;ratioP1;P1;durP2;ratioP2;P2;SDS_P1;SDS_P2;PMS_P1;PMS_P2;Temp;Humidity;BMP_temperature;BMP_pressure;BME280_temperature;BME280_humidity;BME280_pressure;Samples;Min_cycle;Max_cycle;Signal;HPM_P1;HPM_P2
2022/05/11 00:02:11;;;;;;;6.22;3.75;;;;;;;16.80;63.56;99768.63;4994619;28;19924;-69
2022/05/11 00:04:55;;;;;;;7.65;4.45;;;;;;;16.79;63.58;99763.41;4995204;28;20561;-69
2022/05/11 00:07:39;;;;;;;5.13;3.50;;;;;;;16.78;63.75;99765.16;4994578;28;20185;-69
2022/05/11 00:10:23;;;;;;;7.93;3.97;;;;;;;16.78;63.47;99759.94;4995810;28;20149;-69
2022/05/11 00:13:08;;;;;;;4.45;3.20;;;;;;;16.77;63.66;99763.44;4994110;28;20048;-69
2022/05/11 00:15:52;;;;;;;7.57;3.47;;;;;;;16.76;63.52;99759.09;4994584;28;20397;-69
2022/05/11 00:18:38;;;;;;;8.45;4.47;;;;;;;16.75;63.33;99758.22;4994185;28;20484;-69
2022/05/11 00:21:22;;;;;;;6.13;3.42;;;;;;;16.75;63.46;99757.34;4994250;28;20073;-69
2022/05/11 00:24:07;;;;;;;5.35;3.65;;;;;;;16.72;63.17;99762.63;4994469;28;20564;-69
2022/05/11 00:26:51;;;;;;;;;;;;;;;16.69;62.89;99752.19;4995578;28;20081;-69
2022/05/11 00:29:37;;;;;;;5.53;3.50;;;;;;;16.69;63.43;99749.59;4995308;28;19971;-69
2022/05/11 00:32:24;;;;;;;6.25;3.30;;;;;;;16.67;63.50;99736.53;4995164;28;20453;-69
2022/05/11 00:35:11;;;;;;;9.57;3.40;;;;;;;16.69;63.55;99741.72;4994037;28;20049;-69
2022/05/11 00:37:55;;;;;;;4.40;3.58;;;;;;;16.69;63.43;99731.28;4993782;28;20576;-69
2022/05/11 00:40:47;;;;;;;;;;;;;;;16.67;63.43;99728.69;4995546;28;20517;-70
2022/05/11 00:43:40;;;;;;;5.90;3.50;;;;;;;16.65;63.51;99725.22;4993270;28;19928;-70
2022/05/11 00:46:29;;;;;;;8.15;4.18;;;;;;;16.64;63.42;99717.41;4993569;28;20081;-69
2022/05/11 00:49:36;;;;;;;5.65;3.67;;;;;;;16.64;63.32;99718.25;4994843;28;20057;-69
2022/05/11 00:52:24;;;;;;;4.53;3.20;;;;;;;16.63;63.50;99713.91;4995087;28;20045;-69
2022/05/11 00:55:19;;;;;;;4.32;3.53;;;;;;;16.63;63.50;99700.81;4993506;28;20053;-70
2022/05/11 00:58:13;;;;;;;5.95;3.00;;;;;;;16.63;63.36;99700.81;4993598;28;20069;-68
2022/05/11 01:00:57;;;;;;;3.67;2.97;;;;;;;16.65;63.46;99698.22;4994873;28;20101;-69
2022/05/11 01:03:46;;;;;;;;;;;;;;;16.62;62.87;99699.09;4994313;28;20050;-70
2022/05/11 01:06:31;;;;;;;5.68;3.53;;;;;;;16.60;63.20;99700.88;4993268;28;19925;-69
2022/05/11 01:09:18;;;;;;;6.57;3.65;;;;;;;16.60;63.27;99706.09;4994280;28;20514;-68
2022/05/11 01:12:07;;;;;;;6.05;3.10;;;;;;;16.61;63.09;99697.38;4993402;28;20512;-68
2022/05/11 01:14:54;;;;;;;7.28;3.53;;;;;;;16.60;63.05;99685.16;4993644;28;20045;-70
2022/05/11 01:17:42;;;;;;;4.97;3.63;;;;;;;16.61;63.16;99689.53;4994008;28;20413;-69
2022/05/11 01:20:29;;;;;;;5.35;3.30;;;;;;;16.60;62.93;99682.56;4994699;28;20453;-69
2022/05/11 01:23:24;;;;;;;4.07;3.05;;;;;;;16.59;62.93;99683.44;4993433;28;20053;-69
2022/05/11 01:26:08;;;;;;;5.75;3.17;;;;;;;16.59;63.00;99688.66;4993216;28;20065;-69
2022/05/11 01:28:55;;;;;;;6.05;2.92;;;;;;;16.59;62.76;99678.22;4993487;28;20540;-69
2022/05/11 01:31:42;;;;;;;4.53;3.22;;;;;;;16.59;63.10;99686.94;4994042;28;20474;-69
2022/05/11 01:34:26;;;;;;;6.13;3.20;;;;;;;16.60;62.83;99682.56;4994262;28;20061;-69
2022/05/11 01:37:09;;;;;;;3.80;2.97;;;;;;;16.59;63.11;99667.75;4993115;28;20097;-69
2022/05/11 01:39:53;;;;;;;4.00;2.50;;;;;;;16.59;62.92;99665.13;4994208;28;20497;-69
2022/05/11 01:42:41;;;;;;;5.03;3.05;;;;;;;16.59;63.22;99663.41;4994067;28;20140;-69
2022/05/11 01:45:28;;;;;;;6.32;3.45;;;;;;;16.59;63.10;99666.00;4992680;28;20128;-69
2022/05/11 01:48:13;;;;;;;3.92;3.10;;;;;;;16.59;62.84;99657.28;4994001;28;20074;-69
2022/05/11 01:50:57;;;;;;;;;;;;;;;16.57;62.87;99643.38;4993414;28;20053;-68
2022/05/11 01:53:42;;;;;;;4.70;2.67;;;;;;;16.56;63.11;99636.44;4994271;28;19961;-69
2022/05/11 01:56:26;;;;;;;10.35;3.20;;;;;;;16.55;62.82;99629.47;4998226;28;20109;-69
2022/05/11 01:59:10;;;;;;;5.75;2.80;;;;;;;16.52;62.71;99632.97;4996767;28;20046;-69
2022/05/11 02:01:54;;;;;;;5.72;3.30;;;;;;;16.52;62.47;99634.72;4997723;28;20501;-69
2022/05/11 02:07:50;;;;;;;3.95;3.08;;;;;;;16.51;62.84;99631.25;4997787;28;20095;-69
2022/05/11 02:10:35;;;;;;;4.85;3.10;;;;;;;16.51;62.55;99627.78;4996641;28;20101;-69
2022/05/11 02:13:18;;;;;;;;;;;;;;;16.47;62.50;99620.84;4998465;28;20057;-70
2022/05/11 02:16:03;;;;;;;6.78;3.28;;;;;;;16.45;62.54;99620.88;4997939;28;20020;-69
2022/05/11 02:18:47;;;;;;;4.05;3.15;;;;;;;16.44;62.48;99622.63;4996087;28;20050;-69
2022/05/11 02:21:31;;;;;;;4.32;2.72;;;;;;;16.46;62.44;99619.13;4997484;28;20045;-69
2022/05/11 02:24:16;;;;;;;7.20;3.28;;;;;;;16.48;62.72;99622.59;4997814;28;20116;-69
2022/05/11 02:27:02;;;;;;;3.45;2.58;;;;;;;16.50;62.81;99628.66;4996267;28;20054;-69
2022/05/11 02:29:46;;;;;;;15.35;3.10;;;;;;;16.48;62.68;99623.47;4996679;28;20112;-69
2022/05/11 02:32:30;;;;;;;10.93;3.75;;;;;;;16.47;62.44;99637.44;4996777;28;20045;-69
2022/05/11 02:35:15;;;;;;;6.45;3.38;;;;;;;16.44;62.31;99627.84;4997166;28;20081;-69
2022/05/11 02:38:02;;;;;;;7.80;2.83;;;;;;;16.43;62.37;99627.88;4996008;28;20080;-69
2022/05/11 02:40:47;;;;;;;6.88;3.63;;;;;;;16.44;62.56;99621.78;4996566;28;20061;-69
2022/05/11 02:43:32;;;;;;;7.80;3.85;;;;;;;16.42;62.27;99619.19;4997292;28;20053;-69
2022/05/11 02:46:16;;;;;;;15.38;3.70;;;;;;;16.42;62.44;99619.19;4996951;28;20091;-70
2022/05/11 02:49:03;;;;;;;7.68;4.07;;;;;;;16.42;62.38;99619.19;4996305;28;20157;-69
2022/05/11 02:51:47;;;;;;;7.88;3.42;;;;;;;16.42;62.43;99618.31;4997314;28;20580;-69
2022/05/11 02:54:31;;;;;;;9.82;4.03;;;;;;;16.42;62.37;99616.56;4996806;28;20053;-68
2022/05/11 02:57:19;;;;;;;5.97;3.05;;;;;;;16.42;62.47;99616.56;4996619;28;20070;-69
2022/05/11 03:00:07;;;;;;;9.18;2.70;;;;;;;16.44;62.34;99616.53;4996807;28;20188;-68
2022/05/11 03:02:51;;;;;;;4.85;3.20;;;;;;;16.42;62.44;99610.47;4995603;28;20057;-69
2022/05/11 03:05:39;;;;;;;6.43;3.53;;;;;;;16.44;62.40;99613.94;4995437;28;20556;-69
2022/05/11 03:08:23;;;;;;;7.18;3.50;;;;;;;16.43;62.41;99612.19;4996869;28;20045;-70
2022/05/11 03:11:10;;;;;;;9.35;4.05;;;;;;;16.43;62.43;99614.81;4996927;28;20077;-69
2022/05/11 03:13:54;;;;;;;10.10;4.63;;;;;;;16.41;62.33;99607.00;4995726;28;20465;-69
2022/05/11 03:16:39;;;;;;;11.40;4.00;;;;;;;16.42;62.14;99603.50;4996706;28;20065;-69
2022/05/11 03:19:23;;;;;;;9.85;3.63;;;;;;;16.42;62.43;99597.38;4996124;28;20560;-68
2022/05/11 03:22:07;;;;;;;7.15;3.75;;;;;;;16.42;62.54;99600.00;4995598;28;20100;-69
2022/05/11 03:24:52;;;;;;;9.23;3.60;;;;;;;16.41;62.49;99593.94;4996797;28;20465;-68
2022/05/11 03:27:40;;;;;;;5.05;3.65;;;;;;;16.42;62.59;99595.66;4996208;28;20562;-69
2022/05/11 03:30:25;;;;;;;5.50;3.22;;;;;;;16.42;62.34;99593.03;4995716;28;20049;-69
2022/05/11 03:36:14;;;;;;;9.95;4.82;;;;;;;16.41;62.50;99587.81;4996984;28;20116;-69
2022/05/11 03:38:58;;;;;;;10.32;4.32;;;;;;;16.39;62.55;99582.63;4995259;28;20129;-69
2022/05/11 03:41:45;;;;;;;5.22;3.45;;;;;;;16.39;62.62;99581.75;4995896;28;20077;-69
2022/05/11 03:44:29;;;;;;;7.03;3.65;;;;;;;16.40;62.83;99588.69;4995891;28;20418;-69
2022/05/11 03:47:13;;;;;;;8.13;4.18;;;;;;;16.40;62.66;99580.84;4995962;28;20429;-69
2022/05/11 03:49:57;;;;;;;7.72;4.00;;;;;;;16.38;62.54;99580.88;4995906;28;20050;-69
2022/05/11 03:52:41;;;;;;;9.30;3.70;;;;;;;16.38;62.56;99590.47;4996233;28;20049;-69
2022/05/11 03:55:26;;;;;;;;;;;;;;;16.36;62.50;99577.44;4996216;28;20104;-70
2022/05/11 03:58:12;;;;;;;7.38;3.95;;;;;;;16.35;62.74;99575.69;4995736;28;19924;-69
2022/05/11 04:00:59;;;;;;;8.02;3.33;;;;;;;16.36;62.76;99571.31;4995752;28;20052;-69
2022/05/11 04:03:45;;;;;;;11.30;4.88;;;;;;;16.36;62.72;99580.03;4994739;28;20049;-69
2022/05/11 04:06:29;;;;;;;6.82;4.05;;;;;;;16.35;62.98;99575.69;4994715;28;20133;-68
2022/05/11 04:09:13;;;;;;;7.97;4.50;;;;;;;16.34;63.01;99580.97;4995882;28;20057;-68
2022/05/11 04:11:57;;;;;;;8.30;4.40;;;;;;;16.33;62.87;99569.63;4995778;28;20053;-69
2022/05/11 04:14:42;;;;;;;11.02;4.38;;;;;;;16.33;62.73;99574.00;4995068;28;20048;-69
2022/05/11 04:17:26;;;;;;;12.70;4.30;;;;;;;16.31;62.65;99568.78;4993651;28;20481;-68
2022/05/11 04:20:12;;;;;;;;;;;;;;;16.28;62.72;99566.22;4996079;28;20049;-69
2022/05/11 04:22:59;;;;;;;9.98;4.05;;;;;;;16.26;62.80;99562.78;4995147;28;19920;-69
2022/05/11 04:25:43;;;;;;;9.30;4.47;;;;;;;16.26;62.64;99557.53;4995211;28;20096;-69
2022/05/11 04:28:27;;;;;;;6.00;3.80;;;;;;;16.26;62.71;99555.78;4995374;28;20091;-69
2022/05/11 04:31:12;;;;;;;8.30;4.22;;;;;;;16.26;63.11;99565.41;4995013;28;20049;-68
2022/05/11 04:33:59;;;;;;;9.27;4.35;;;;;;;16.25;62.86;99563.66;4994607;28;20049;-69
2022/05/11 04:36:43;;;;;;;8.07;3.83;;;;;;;16.25;62.74;99558.44;4994302;28;20096;-69
2022/05/11 04:39:30;;;;;;;7.55;4.07;;;;;;;16.24;62.85;99552.31;4995240;28;20077;-68
2022/05/11 04:42:14;;;;;;;4.97;3.13;;;;;;;16.24;62.52;99552.31;4994111;28;20137;-69
2022/05/11 04:44:58;;;;;;;7.55;4.20;;;;;;;16.24;62.78;99554.09;4995170;28;20181;-70
2022/05/11 04:47:43;;;;;;;7.70;3.50;;;;;;;16.23;62.71;99553.22;4994900;28;20061;-69
2022/05/11 04:50:27;;;;;;;7.90;3.75;;;;;;;16.23;62.64;99553.22;4994305;28;20088;-68
2022/05/11 04:53:13;;;;;;;6.90;3.88;;;;;;;16.23;62.76;99549.75;4994712;28;20068;-68
2022/05/11 04:55:57;;;;;;;7.80;4.40;;;;;;;16.21;62.68;99547.13;4993725;28;20076;-68
2022/05/11 04:58:41;;;;;;;9.25;4.07;;;;;;;16.22;63.00;99550.63;4994172;28;20076;-69
2022/05/11 05:01:25;;;;;;;5.40;3.67;;;;;;;16.22;62.89;99548.00;4994435;28;20469;-69
2022/05/11 05:04:09;;;;;;;;;;;;;;;16.20;62.79;99549.78;4994595;28;20044;-68
2022/05/11 05:06:54;;;;;;;8.18;4.55;;;;;;;16.18;62.86;99549.81;4994438;28;19924;-69
2022/05/11 05:09:49;;;;;;;7.93;3.78;;;;;;;16.19;62.78;99548.06;4993501;28;20088;-69
2022/05/11 05:12:38;;;;;;;7.68;4.22;;;;;;;16.18;62.77;99547.22;4992995;28;20125;-69
2022/05/11 05:15:22;;;;;;;7.35;4.13;;;;;;;16.18;62.74;99544.59;4993617;28;20398;-69
2022/05/11 05:18:06;;;;;;;10.35;4.90;;;;;;;16.16;62.83;99543.75;4994448;28;20413;-68
2022/05/11 05:20:50;;;;;;;9.65;5.18;;;;;;;16.16;62.53;99548.09;4994125;28;20049;-69
2022/05/11 05:23:35;;;;;;;;;;;;;;;16.11;62.62;99546.44;4993711;28;20049;-69
2022/05/11 05:26:24;;;;;;;11.40;5.07;;;;;;;16.11;62.72;99550.78;4993888;28;19964;-69
2022/05/11 05:32:17;;;;;;;12.10;5.82;;;;;;;16.08;62.57;99561.28;4994442;28;20061;-68
2022/05/11 05:35:02;;;;;;;8.15;4.72;;;;;;;16.07;62.64;99565.66;4993220;28;20053;-68
2022/05/11 05:37:49;;;;;;;;;;;;;;;16.05;62.54;99559.59;4994253;28;20056;-69
2022/05/11 05:40:36;;;;;;;10.10;6.03;;;;;;;16.07;62.74;99562.16;4997791;28;21437;-68
2022/05/11 05:43:24;;;;;;;11.88;7.13;;;;;;;16.06;62.73;99561.31;4998699;28;20049;-69
2022/05/11 05:46:08;;;;;;;16.48;8.40;;;;;;;16.06;62.85;99563.94;4999135;28;20080;-68
2022/05/11 05:50:46;;;;;;;12.13;7.75;;;;;;;16.06;62.80;99570.88;5132158;27;20139;-68
2022/05/11 05:53:34;;;;;;;15.45;8.40;;;;;;;16.06;63.06;99578.72;5131549;28;20047;-68
2022/05/11 05:56:24;;;;;;;17.75;9.10;;;;;;;16.06;63.03;99568.28;5145510;27;20050;-69
2022/05/11 05:59:14;;;;;;;17.90;10.05;;;;;;;16.06;62.96;99569.16;5116412;28;20131;-69
2022/05/11 06:02:13;;;;;;;14.43;8.98;;;;;;;16.08;63.05;99572.63;5131983;28;20042;-68
2022/05/11 06:05:00;;;;;;;18.10;9.02;;;;;;;16.09;62.98;99576.97;5116274;28;20096;-68
2022/05/11 06:07:47;;;;;;;15.23;8.52;;;;;;;16.09;63.00;99576.97;5116339;28;20394;-69
2022/05/11 06:10:31;;;;;;;13.82;8.43;;;;;;;16.09;63.07;99576.06;5116065;28;20099;-69
2022/05/11 06:13:22;;;;;;;14.50;8.80;;;;;;;16.09;63.00;99586.53;5131415;28;20046;-69
2022/05/11 06:16:15;;;;;;;15.85;7.95;;;;;;;16.09;63.19;99579.56;5131117;28;20050;-68
2022/05/11 06:19:00;;;;;;;19.20;8.88;;;;;;;16.10;63.20;99586.53;5131653;28;20046;-70
2022/05/11 06:21:44;;;;;;;15.27;6.85;;;;;;;16.11;62.96;99593.50;5130909;28;20046;-68
2022/05/11 06:24:34;;;;;;;14.73;7.43;;;;;;;16.10;63.20;99589.16;5131106;28;20072;-69
2022/05/11 06:27:23;;;;;;;10.68;6.63;;;;;;;16.11;63.11;99584.75;5144665;27;20049;-68
2022/05/11 06:30:14;;;;;;;14.95;6.78;;;;;;;16.10;63.18;99586.53;5115782;28;20046;-69
2022/05/11 06:33:08;;;;;;;9.23;5.72;;;;;;;16.11;63.19;99595.22;5130996;28;20050;-69
2022/05/11 06:35:54;;;;;;;9.48;6.78;;;;;;;16.11;63.24;99595.22;5115352;28;20464;-68
2022/05/11 06:38:42;;;;;;;12.07;6.18;;;;;;;16.10;62.99;99586.53;5115823;28;20046;-69
2022/05/11 06:41:28;;;;;;;8.45;6.63;;;;;;;16.11;63.15;99587.38;5144882;27;20050;-68
2022/05/11 06:44:12;;;;;;;8.48;6.45;;;;;;;16.11;63.28;99588.25;5115687;28;20112;-69
2022/05/11 06:46:59;;;;;;;9.57;6.60;;;;;;;16.11;63.28;99590.00;5115276;28;20049;-69
2022/05/11 06:49:50;;;;;;;13.68;7.65;;;;;;;16.12;63.11;99589.09;5130304;28;20157;-69
2022/05/11 06:52:37;;;;;;;11.20;7.82;;;;;;;16.11;63.24;99598.72;5115051;28;20091;-69
2022/05/11 07:01:41;;;;;;;9.57;6.43;;;;;;;16.09;63.24;99602.22;5119917;28;20046;-68
2022/05/11 07:04:35;;;;;;;10.65;6.30;;;;;;;16.08;63.48;99603.97;5101494;28;20045;-69
2022/05/11 07:07:22;;;;;;;9.07;5.55;;;;;;;16.09;63.26;99599.59;5101170;28;20472;-69
2022/05/11 07:10:07;;;;;;;8.00;5.55;;;;;;;16.09;63.43;99599.59;5116406;28;20074;-69
2022/05/11 07:12:51;;;;;;;9.07;4.50;;;;;;;16.07;63.50;99602.25;5101045;28;20093;-68
2022/05/11 07:15:35;;;;;;;7.68;5.35;;;;;;;16.08;63.22;99593.53;5116425;28;20460;-69
2022/05/11 07:18:27;;;;;;;11.48;5.40;;;;;;;16.10;63.43;99594.38;5101490;28;20088;-68
2022/05/11 07:21:20;;;;;;;8.13;5.00;;;;;;;16.10;63.48;99596.09;5101105;28;20047;-69
2022/05/11 07:24:10;;;;;;;6.75;4.57;;;;;;;16.12;63.44;99589.97;5101123;28;20171;-68
2022/05/11 07:27:00;;;;;;;7.68;4.68;;;;;;;16.12;63.57;99587.34;5101191;28;20138;-69
2022/05/11 07:29:53;;;;;;;6.75;4.60;;;;;;;16.13;63.26;99588.22;5100728;28;20104;-69
2022/05/11 07:32:46;;;;;;;6.30;4.18;;;;;;;16.14;63.34;99589.97;5101113;28;20070;-68
2022/05/11 07:35:39;;;;;;;7.78;5.07;;;;;;;16.15;63.63;99586.47;5099952;28;20054;-69
2022/05/11 07:38:38;;;;;;;6.57;4.68;;;;;;;16.14;63.50;99593.41;5116187;28;20042;-69
2022/05/11 07:41:25;;;;;;;11.07;4.38;;;;;;;16.15;63.69;99583.84;5100674;28;20566;-69
2022/05/11 07:44:12;;;;;;;8.18;4.78;;;;;;;16.14;63.54;99588.19;5100690;28;20120;-70
2022/05/11 07:47:05;;;;;;;8.18;3.88;;;;;;;16.14;63.61;99585.56;5115497;28;20050;-68
2022/05/11 07:49:58;;;;;;;4.72;3.33;;;;;;;16.11;63.48;99592.59;5100218;28;20453;-69
2022/05/11 07:52:54;;;;;;;5.18;3.67;;;;;;;16.13;63.55;99586.47;5116660;28;20042;-68
2022/05/11 07:59:52;;;;;;;7.93;3.90;;;;;;;16.16;63.43;99597.75;5100648;28;20108;-69
2022/05/11 08:02:14;;;;;;;5.80;3.70;;;;;;;16.14;63.29;99593.41;5115422;28;20054;-69
2022/05/11 08:05:09;;;;;;;5.78;3.75;;;;;;;16.13;63.52;99602.16;5115209;28;20467;-68
2022/05/11 08:07:56;;;;;;;7.32;3.25;;;;;;;16.13;63.50;99596.91;5100478;28;20114;-68
2022/05/11 08:10:45;;;;;;;6.35;3.42;;;;;;;16.09;63.42;99590.03;5115379;28;20050;-69
2022/05/11 08:13:32;;;;;;;5.82;3.33;;;;;;;16.13;63.38;99589.06;5099361;28;20050;-68
2022/05/11 08:16:20;;;;;;;6.10;3.30;;;;;;;16.12;63.50;99592.56;5100256;28;20131;-69
2022/05/11 08:19:12;;;;;;;5.40;3.30;;;;;;;16.14;63.45;99590.81;5099866;28;20050;-70
2022/05/11 08:22:05;;;;;;;6.47;3.40;;;;;;;16.13;63.41;99586.47;5115269;28;20093;-68
2022/05/11 08:25:03;;;;;;;4.32;2.92;;;;;;;16.16;63.55;99582.97;5099864;28;20097;-68
2022/05/11 08:27:56;;;;;;;5.60;3.00;;;;;;;16.18;63.52;99577.69;5099721;28;20072;-69
2022/05/11 08:33:57;;;;;;;4.47;2.80;;;;;;;16.24;63.75;99585.47;5114976;28;20066;-69
2022/05/11 08:36:48;;;;;;;7.07;2.90;;;;;;;16.26;63.71;99578.47;5099938;28;20096;-68
2022/05/11 08:39:35;;;;;;;6.93;3.42;;;;;;;16.28;63.49;99577.53;5099637;28;20067;-68
2022/05/11 08:42:32;;;;;;;3.78;2.40;;;;;;;16.30;63.72;99580.13;5099304;28;20054;-69
2022/05/11 08:45:21;;;;;;;3.88;2.88;;;;;;;16.32;63.58;99577.50;5114717;28;20062;-69
2022/05/11 08:48:51;;;;;;;5.20;3.10;;;;;;;16.35;63.70;99575.69;5114597;28;20571;-70
2022/05/11 08:51:42;;;;;;;7.28;3.35;;;;;;;16.37;63.71;99576.53;5087686;28;20050;-70
2022/05/11 08:54:49;;;;;;;4.63;2.90;;;;;;;16.41;63.71;99574.75;5099449;28;20564;-70
2022/05/11 08:57:43;;;;;;;7.63;3.33;;;;;;;16.41;63.84;99567.78;5099585;28;20184;-69
2022/05/11 09:00:39;;;;;;;4.57;2.90;;;;;;;16.45;63.70;99563.34;5099836;28;20047;-69
2022/05/11 09:03:41;;;;;;;6.13;3.15;;;;;;;16.47;63.65;99555.47;5128483;27;20070;-70
2022/05/11 09:06:30;;;;;;;7.32;3.72;;;;;;;16.48;63.65;99562.44;5114720;28;20104;-69
2022/05/11 09:09:16;;;;;;;4.60;3.30;;;;;;;16.50;63.56;99556.31;5114505;28;20055;-68
2022/05/11 09:12:11;;;;;;;5.90;3.10;;;;;;;16.51;63.67;99551.91;5098717;28;20050;-70
2022/05/11 09:15:01;;;;;;;6.13;3.00;;;;;;;16.55;63.57;99553.59;5099070;28;20127;-69
2022/05/11 09:18:06;;;;;;;3.83;3.15;;;;;;;16.58;63.65;99548.34;5113879;28;20046;-69
2022/05/11 09:21:03;;;;;;;;;;;;;;;16.57;63.65;99551.84;5099129;28;20111;-69
2022/05/11 09:24:13;;;;;;;6.15;3.20;;;;;;;16.59;63.53;99550.03;5113988;28;19964;-69
2022/05/11 09:27:14;;;;;;;6.03;3.25;;;;;;;16.62;63.34;99544.75;5114219;28;20051;-70
2022/05/11 09:30:05;;;;;;;6.38;3.20;;;;;;;16.65;63.57;99544.72;5098477;28;20042;-68
2022/05/11 09:32:53;;;;;;;5.35;3.42;;;;;;;16.67;63.65;99536.81;5098907;28;20410;-69
2022/05/11 09:35:38;;;;;;;5.03;3.35;;;;;;;16.70;63.65;99542.00;5113621;28;20046;-69
2022/05/11 09:38:40;;;;;;;9.65;3.00;;;;;;;16.71;63.59;99541.13;5098699;28;20119;-69
2022/05/11 09:41:44;;;;;;;4.53;3.13;;;;;;;16.71;63.46;99538.50;5098289;28;20042;-68
2022/05/11 09:44:53;;;;;;;7.13;3.67;;;;;;;16.73;63.59;99539.34;5113967;28;20053;-69
2022/05/11 09:48:02;;;;;;;5.60;3.38;;;;;;;16.76;63.61;99534.06;5098572;28;20414;-70
2022/05/11 09:51:27;;;;;;;6.93;3.90;;;;;;;16.77;63.59;99535.78;5113913;28;20140;-69
2022/05/11 09:54:32;;;;;;;7.40;4.30;;;;;;;16.78;63.54;99529.66;5098299;28;20537;-69
2022/05/11 09:57:27;;;;;;;;;;;;;;;16.79;63.61;99525.28;5098815;28;20551;-69
2022/05/11 10:00:22;;;;;;;6.68;4.18;;;;;;;16.80;63.31;99525.28;5098798;28;20454;-69
2022/05/11 10:03:27;;;;;;;7.38;3.65;;;;;;;16.83;63.69;99530.44;5098486;28;20047;-69
2022/05/11 10:06:19;;;;;;;6.47;4.25;;;;;;;16.86;63.63;99524.28;5098526;28;20073;-69
2022/05/11 10:09:12;;;;;;;6.07;4.18;;;;;;;16.88;63.60;99523.38;5097783;28;20050;-69
2022/05/11 10:12:09;;;;;;;8.10;4.97;;;;;;;16.91;63.47;99522.44;5127460;28;20090;-69
2022/05/11 10:21:53;;;;;;;6.45;3.72;;;;;;;16.95;63.34;99502.38;5113939;28;20057;-69
2022/05/11 10:24:53;;;;;;;6.68;4.50;;;;;;;16.96;63.62;99504.09;5098265;28;20513;-69
2022/05/11 10:27:52;;;;;;;9.18;4.60;;;;;;;16.99;63.59;99504.00;5098398;28;20398;-69
2022/05/11 10:31:08;;;;;;;5.60;3.72;;;;;;;17.04;63.57;99497.81;5113414;28;20050;-70
2022/05/11 10:34:17;;;;;;;6.70;4.07;;;;;;;17.05;63.50;99491.66;5097955;28;20406;-69
2022/05/11 10:37:30;;;;;;;7.38;4.50;;;;;;;17.07;63.58;99483.78;5116159;28;20514;-69
2022/05/11 10:40:34;;;;;;;10.25;4.75;;;;;;;17.07;63.49;99486.41;5101923;28;20425;-71
2022/05/11 10:44:04;;;;;;;6.95;4.15;;;;;;;17.09;63.11;99470.66;5101968;28;20088;-69
2022/05/11 10:47:12;;;;;;;5.53;4.00;;;;;;;17.11;63.25;99469.75;5088183;28;20112;-69
2022/05/11 10:50:08;;;;;;;10.55;4.50;;;;;;;17.13;63.43;99467.09;5093340;28;20530;-69
2022/05/11 10:53:14;;;;;;;5.65;4.60;;;;;;;17.16;63.42;99461.81;5096031;28;20078;-69
2022/05/11 10:56:19;;;;;;;8.52;3.88;;;;;;;17.18;63.28;99454.78;5095560;28;20042;-70
2022/05/11 10:59:36;;;;;;;9.38;4.63;;;;;;;17.20;63.36;99459.09;5096386;28;20039;-69
2022/05/11 11:02:58;;;;;;;5.35;4.32;;;;;;;17.22;63.17;99460.81;5095580;28;20100;-69
2022/05/11 11:09:42;;;;;;;6.75;4.55;;;;;;;17.27;63.47;99448.50;5096104;28;20628;-69
2022/05/11 11:13:06;;;;;;;6.10;4.55;;;;;;;17.29;63.49;99439.72;5095321;28;20047;-68
2022/05/11 11:16:00;;;;;;;6.82;3.92;;;;;;;17.31;63.17;99437.91;5095763;28;20113;-69
2022/05/11 11:18:52;;;;;;;7.35;4.88;;;;;;;17.33;63.23;99430.91;5096143;28;20093;-69
2022/05/11 11:21:42;;;;;;;7.60;4.53;;;;;;;17.36;63.33;99445.66;5095454;28;20051;-69
2022/05/11 11:24:29;;;;;;;6.93;4.10;;;;;;;17.35;63.18;99421.25;5094829;28;20048;-69
2022/05/11 11:27:52;;;;;;;6.78;4.28;;;;;;;17.40;62.96;99428.13;5095135;28;20458;-69
2022/05/11 11:31:02;;;;;;;8.00;4.22;;;;;;;17.42;63.19;99418.47;5095395;28;20082;-69
2022/05/11 11:34:27;;;;;;;6.47;3.80;;;;;;;17.46;63.07;99414.91;5095851;28;20052;-70
2022/05/11 11:37:24;;;;;;;7.57;4.50;;;;;;;17.44;63.03;99420.16;5095127;28;20044;-70
2022/05/11 11:40:23;;;;;;;7.75;4.07;;;;;;;17.46;63.07;99404.44;5094730;28;20055;-69
2022/05/11 11:43:49;;;;;;;6.85;4.43;;;;;;;17.49;62.88;99399.97;5095945;28;20403;-69
2022/05/11 11:46:38;;;;;;;6.93;4.10;;;;;;;17.48;63.05;99402.63;5052773;28;20044;-69
2022/05/11 11:49:26;;;;;;;7.70;4.30;;;;;;;17.49;62.46;99393.88;5094510;28;20505;-70
2022/05/11 11:52:43;;;;;;;10.88;4.28;;;;;;;17.54;62.39;99392.00;5094796;28;20520;-70
2022/05/11 11:55:40;;;;;;;16.27;3.75;;;;;;;17.53;62.66;99394.66;5095907;28;20051;-69
2022/05/11 11:58:39;;;;;;;8.30;3.50;;;;;;;17.54;62.54;99397.25;5095416;28;20456;-69
2022/05/11 12:01:31;;;;;;;7.38;3.47;;;;;;;17.55;62.44;99391.09;5123705;27;20510;-69
2022/05/11 12:04:45;;;;;;;9.70;3.30;;;;;;;17.57;62.56;99396.34;5095343;28;20509;-69
2022/05/11 12:17:35;;;;;;;12.85;3.42;;;;;;;17.58;61.75;99377.09;5095429;28;20051;-70
2022/05/11 12:20:26;;;;;;;9.10;2.92;;;;;;;17.59;62.22;99381.44;5094058;28;20055;-69
2022/05/11 12:23:46;;;;;;;9.70;3.17;;;;;;;17.60;62.16;99384.00;5094688;28;20203;-69
2022/05/11 12:26:41;;;;;;;5.35;2.90;;;;;;;17.62;62.07;99378.72;5094061;28;20051;-70
2022/05/11 12:32:38;;;;;;;7.18;2.72;;;;;;;17.66;62.03;99375.16;5095000;28;20135;-69
2022/05/11 12:35:29;;;;;;;11.38;2.88;;;;;;;17.67;62.02;99373.41;5094012;28;20157;-69
2022/05/11 12:38:24;;;;;;;11.90;2.65;;;;;;;17.67;61.88;99371.63;5093801;28;20055;-69
2022/05/11 12:41:21;;;;;;;6.75;3.05;;;;;;;17.69;61.82;99369.84;5094185;28;20501;-69
2022/05/11 12:44:27;;;;;;;3.28;2.35;;;;;;;17.70;61.85;99368.94;5122397;27;20449;-70
2022/05/11 12:47:18;;;;;;;2.63;2.00;;;;;;;17.71;61.61;99375.91;5093377;28;20541;-69
2022/05/11 12:50:17;;;;;;;5.75;2.50;;;;;;;17.73;61.60;99375.84;5093155;28;20090;-69
2022/05/11 12:53:29;;;;;;;4.63;2.90;;;;;;;17.74;61.63;99373.22;5122745;27;20040;-70
2022/05/11 12:56:24;;;;;;;3.38;2.42;;;;;;;17.78;61.27;99376.63;5094140;28;20530;-69
2022/05/11 12:59:19;;;;;;;;;;;;;;;17.79;61.49;99370.47;5093354;28;20051;-69
2022/05/11 13:02:25;;;;;;;14.85;2.80;;;;;;;17.81;61.38;99387.03;5094135;28;20011;-69
2022/05/11 13:05:19;;;;;;;9.48;2.42;;;;;;;17.83;61.34;99384.34;5093709;28;20521;-70
2022/05/11 13:08:11;;;;;;;5.47;2.45;;;;;;;17.83;60.87;99372.09;5094014;28;20449;-69
2022/05/11 13:11:01;;;;;;;4.45;2.15;;;;;;;17.84;60.92;99365.97;5093015;28;20113;-70
2022/05/11 13:13:59;;;;;;;12.57;3.00;;;;;;;17.83;61.01;99368.63;5093252;28;20051;-70
2022/05/11 13:16:53;;;;;;;6.80;3.00;;;;;;;17.83;60.96;99364.25;5093357;28;20513;-70
2022/05/11 13:19:43;;;;;;;6.47;2.47;;;;;;;17.84;61.12;99362.50;5093057;28;20411;-69
2022/05/11 13:22:34;;;;;;;5.32;2.33;;;;;;;17.85;60.75;99362.44;5093000;28;20054;-69
2022/05/11 13:25:36;;;;;;;7.00;2.10;;;;;;;17.88;60.89;99356.28;5093166;28;20043;-69
2022/05/11 13:28:23;;;;;;;8.30;2.28;;;;;;;17.87;60.66;99354.56;5093598;28;20089;-69
2022/05/11 13:31:26;;;;;;;5.65;2.40;;;;;;;17.87;60.61;99357.19;5092768;28;20043;-70
2022/05/11 13:34:35;;;;;;;3.15;1.80;;;;;;;17.91;60.86;99354.44;5094356;28;20047;-70
2022/05/11 13:37:32;;;;;;;3.78;1.77;;;;;;;17.90;60.73;99339.63;5092931;28;20047;-70
2022/05/11 13:40:38;;;;;;;3.13;1.88;;;;;;;17.91;60.97;99351.81;5092466;28;20252;-70
2022/05/11 13:43:55;;;;;;;3.97;1.63;;;;;;;17.92;60.62;99361.41;5092895;28;20124;-69
2022/05/11 13:50:37;;;;;;;7.50;2.20;;;;;;;17.95;60.69;99348.22;5028992;28;20107;-70
2022/05/11 13:53:36;;;;;;;5.18;2.10;;;;;;;17.93;60.74;99347.41;5093664;28;20075;-70
2022/05/11 13:56:28;;;;;;;4.07;2.00;;;;;;;17.94;60.60;99338.63;5092544;28;20051;-70
2022/05/11 13:59:16;;;;;;;4.68;2.28;;;;;;;17.94;60.60;99338.63;5094310;28;20055;-69
2022/05/11 14:02:11;;;;;;;3.92;1.80;;;;;;;17.99;60.33;99349.03;5092535;28;20055;-69
2022/05/11 14:05:06;;;;;;;4.18;2.00;;;;;;;17.98;60.55;99338.59;5092769;28;20047;-69
2022/05/11 14:07:50;;;;;;;5.88;3.33;;;;;;;17.99;60.51;99335.06;5092567;28;20090;-69
2022/05/11 14:10:38;;;;;;;5.13;2.65;;;;;;;17.98;60.48;99331.59;5093525;28;20071;-70
2022/05/11 14:13:28;;;;;;;6.45;2.20;;;;;;;18.00;60.54;99335.03;5096614;28;20458;-69
2022/05/11 14:16:28;;;;;;;4.60;1.98;;;;;;;18.00;60.17;99335.03;5097005;28;20101;-70
2022/05/11 14:19:15;;;;;;;7.45;2.53;;;;;;;18.01;60.53;99322.78;5097516;28;20047;-70
2022/05/11 14:22:11;;;;;;;2.53;1.80;;;;;;;18.04;60.42;99334.06;5097087;28;20132;-70